Aviation Digital Data Service (ADDS)

Output produced by METARs form (0225 UTC 12 May 2021)
found at http://www.aviationweather.gov/metar/data/
 
Forecast for: UKOO (ODESSA/TSENTRALN, UA)
Text: TAF UKOO 112305Z 1200/1224 08005G12MPS 2100 -SHRA BR BKN007 SCT015CB
Forecast period: 0000 to 0600 UTC 12 May 2021
Forecast type: FROM: standard forecast or significant change
Winds: from the E (80 degrees) at 12 MPH (10 knots; 5.1 m/s)
gusting to 26 MPH (23 knots; 11.8 m/s)
Visibility: 1.30 miles (2.09 km)
Ceiling: 700 feet AGL
Clouds: broken clouds at 700 feet AGL
scattered clouds at 1500 feet AGL
Weather: -SHRA BR  (light rain showers, mist)
Text: PROB40
Forecast period: 0000 to 0600 UTC 12 May 2021
Forecast type: TEMPORARY: The following changes expected for less than half the time period
Visibility: 0.62 miles (1.00 km)
Ceiling: 400 feet AGL
Clouds: broken clouds at 400 feet AGL
scattered clouds at 1300 feet AGL
Weather: TSRA BR  (rain associated with thunderstorm(s), mist)
Text: TEMPO 1200/1206 1000 TSRA BR BKN004 SCT013CB
Forecast period: 0600 UTC 12 May 2021 to 0000 UTC 13 May 2021
Forecast type: BECOMING: Conditions expected to become as follows by 0700 UTC 12 May 2021
Winds: from the E (100 degrees) at 7 MPH (6 knots; 3.1 m/s)
Visibility: 4 miles (6 km)
Ceiling: 700 feet AGL
Clouds: broken clouds at 700 feet AGL
scattered clouds at 1500 feet AGL
Weather: NSW  (no significant weather)